Latest Weather Observations for Winton

IDQ60801

Issued at 10:02 pm EST Friday 19 December 2014 (issued every 30 minutes, with the page automatically refreshed every 10 minutes)

About weather observations | Map of weather stations | Latest weather observations for QLD | Other Formats
Station Details ID: 037039 Name: WINTON AIRPORT Lat: -22.36 Lon: 143.08 Height: 192.2 m
Data from the previous 72 hours. | See also: Recent months at Winton
Date/Time
EST
Temp
°C
App
Temp
°C
Dew
Point
Rel
Hum
%
Delta-T
°C
Wind Press
QNH
hPa
Press
MSL
hPa
Rain
since 9 am
mm
Dir
 
Spd
km/h
Gust
km/h
Spd
kts
Gust
kts
19/10:00pm 29.7 29.3 13.0 35 10.0 E 7 9 4 5 1011.9 1010.4 0.0
19/09:30pm 30.3 29.6 13.1 34 10.3 ENE 9 13 5 7 1011.4 1009.9 0.0
19/08:30pm 32.8 30.3 8.3 22 13.8 ESE 11 15 6 8 1010.7 1009.2 0.0
19/08:00pm 33.6 31.1 8.3 21 14.3 SE 11 17 6 9 1010.3 1008.9 0.0
19/07:30pm 34.7 31.1 8.4 20 14.9 SE 17 24 9 13 1010.0 1008.6 0.0
19/07:00pm 35.5 31.5 9.1 20 15.2 SE 20 28 11 15 1009.7 1008.3 0.0
19/06:30pm 36.1 33.2 9.6 20 15.4 ESE 15 22 8 12 1009.4 1008.0 0.0
19/06:00pm 36.6 33.6 10.7 21 15.4 SE 17 28 9 15 1009.2 1007.7 0.0
19/05:30pm 36.4 35.1 11.3 22 15.0 SE 9 17 5 9 1009.1 1007.6 0.0
19/05:00pm 37.1 33.9 11.1 21 15.6 ESE 19 30 10 16 1008.9 1007.4 0.0
19/04:30pm 37.5 35.7 12.2 22 15.4 ESE 13 26 7 14 1009.0 1007.5 0.0
19/04:00pm 36.5 34.5 12.7 24 14.5 SE 15 24 8 13 1009.3 1007.8 0.0
19/03:30pm 36.4 34.8 13.8 26 14.0 ESE 15 24 8 13 1009.6 1008.2 0.0
19/03:00pm 35.3 33.7 14.0 28 13.2 SE 15 30 8 16 1010.0 1008.6 0.0
19/02:30pm 35.9 35.5 15.1 29 13.1 E 11 20 6 11 1010.3 1008.9 0.0
19/02:00pm 35.9 35.3 15.6 30 12.9 SE 13 22 7 12 1010.8 1009.3 0.0
19/01:30pm 35.6 34.7 15.9 31 12.5 E 15 35 8 19 1011.2 1009.7 0.0
19/01:00pm 34.4 32.5 15.8 33 11.8 ESE 20 33 11 18 1011.6 1010.1 0.0
19/12:30pm 34.6 34.1 16.9 35 11.4 ESE 15 32 8 17 1012.1 1010.6 0.0
19/12:00pm 34.1 33.6 16.9 36 11.0 E 15 28 8 15 1012.6 1011.1 0.0
19/11:30am 33.1 32.1 16.5 37 10.6 ESE 17 32 9 17 1012.8 1011.3 0.0
19/11:00am 32.6 31.9 16.4 37 10.3 ESE 15 24 8 13 1013.0 1011.5 0.0
19/10:30am 31.9 30.9 16.6 39 9.7 E 17 28 9 15 1013.5 1012.0 0.0
19/10:00am 30.9 29.9 16.5 42 9.1 SE 17 26 9 14 1013.6 1012.1 0.0
19/09:30am 31.2 31.0 18.5 46 8.3 ESE 17 28 9 15 1013.8 1012.3 0.0
19/09:00am 29.2 29.7 18.3 51 7.0 E 13 24 7 13 1013.7 1012.2 0.0
19/08:30am 27.6 27.9 18.0 55 6.1 ESE 13 20 7 11 1013.9 1012.4 0.0
19/08:00am 26.8 26.8 18.1 59 5.6 ESE 15 19 8 10 1013.8 1012.3 0.0
19/07:30am 25.9 26.5 17.8 61 5.1 ESE 11 15 6 8 1013.5 1012.0 0.0
19/07:00am 25.1 25.5 18.1 65 4.4 SE 13 20 7 11 1013.2 1011.7 0.0
19/06:30am 24.0 26.1 18.0 69 3.8 SSE 4 6 2 3 1012.8 1011.3 0.0
19/06:00am 22.8 24.3 17.7 73 3.2 SE 6 6 3 3 1012.3 1010.8 0.0
19/05:30am 22.9 24.3 17.8 73 3.2 E 7 9 4 5 1011.9 1010.4 0.0
19/05:00am 23.1 24.2 18.0 73 3.2 ESE 9 11 5 6 1011.6 1010.1 0.0
19/04:30am 23.3 24.4 18.0 72 3.3 SE 9 13 5 7 1011.5 1010.0 0.0
19/04:00am 23.2 24.3 18.1 73 3.2 SSE 9 13 5 7 1011.6 1010.1 0.0
19/03:30am 22.9 24.2 17.6 72 3.3 SE 7 9 4 5 1011.6 1010.1 0.0
19/03:00am 23.3 25.0 18.0 72 3.3 SE 6 7 3 4 1011.6 1010.1 0.0
19/02:30am 24.0 25.7 18.4 71 3.6 E 7 9 4 5 1011.5 1010.0 0.0
19/02:00am 24.0 25.3 18.4 71 3.6 ENE 9 9 5 5 1011.4 1009.9 0.0
19/01:30am 24.5 25.9 18.7 70 3.7 ENE 9 13 5 7 1011.8 1010.3 0.0
19/01:00am 24.8 24.9 18.3 67 4.1 NE 15 19 8 10 1012.1 1010.6 0.0
19/12:30am 25.2 24.7 17.9 64 4.6 ENE 17 22 9 12 1012.8 1011.3 0.0
19/12:00am 25.7 24.5 17.6 61 5.1 ENE 20 26 11 14 1013.2 1011.7 0.0
 
Date/Time
EST
Temp
°C
App
Temp
°C
Dew
Point
Rel
Hum
%
Delta-T
°C
Wind Press
QNH
hPa
Press
MSL
hPa
Rain
since 9 am
mm
Dir
 
Spd
km/h
Gust
km/h
Spd
kts
Gust
kts
18/11:30pm 26.1 24.8 16.9 57 5.8 ENE 19 26 10 14 1013.3 1011.8 0.0
18/11:00pm 26.4 25.1 16.9 56 5.9 ENE 19 24 10 13 1013.1 1011.6 0.0
18/10:30pm 26.6 25.1 16.8 55 6.1 E 20 26 11 14 1013.1 1011.6 0.0
18/10:00pm 26.8 25.5 17.3 56 6.0 E 20 28 11 15 1012.6 1011.1 0.0
18/09:30pm 26.9 25.4 16.8 54 6.3 E 20 30 11 16 1012.3 1010.8 0.0
18/09:00pm 26.9 25.2 17.1 55 6.2 E 22 28 12 15 1012.4 1010.9 0.0
18/08:30pm 27.4 26.2 17.0 53 6.5 E 19 28 10 15 1012.6 1011.1 0.0
18/08:00pm 27.7 27.6 16.9 51 6.8 SE 13 17 7 9 1012.9 1011.4 0.0
18/07:30pm 27.8 26.6 17.0 51 6.8 SSE 19 22 10 12 1012.7 1011.2 0.0
18/07:00pm 28.1 26.2 16.7 50 7.2 SSE 22 32 12 17 1012.1 1010.6 0.0
18/06:30pm 28.4 25.2 16.3 47 7.6 SSE 28 41 15 22 1012.0 1010.5 0.0
18/06:00pm 28.7 24.6 15.9 45 8.0 SSE 32 46 17 25 1012.1 1010.6 0.0
18/05:30pm 29.3 24.2 15.8 44 8.4 SSE 37 50 20 27 1011.5 1010.0 0.0
18/05:06pm 29.8 23.3 15.5 42 8.9 S 44 65 24 35 1011.1 1009.6 0.0
18/05:00pm 29.9 22.2 15.6 42 8.9 S 50 65 27 35 1010.9 1009.4 0.0
18/04:30pm 31.1 22.5 15.1 38 9.9 S 54 72 29 39 1010.1 1008.7 0.0
18/04:06pm 32.1 22.3 14.3 34 10.9 SSW 59 78 32 42 1009.4 1008.0 0.0
18/04:00pm 33.0 23.3 14.6 33 11.4 SSW 59 72 32 39 1009.2 1007.7 0.0
18/03:49pm 33.4 23.1 14.0 31 11.9 SSW 61 82 33 44 1008.9 1007.4 0.0
18/03:30pm 36.2 26.5 13.6 25 14.0 SW 57 80 31 43 1008.0 1006.5 0.0
18/03:14pm 35.3 25.0 12.9 26 13.6 SW 59 78 32 42 1007.1 1005.6 0.0
18/03:00pm 36.0 25.7 14.1 27 13.6 SW 61 78 33 42 1007.1 1005.6 0.0
18/02:30pm 36.5 29.5 19.9 38 11.2 WSW 56 72 30 39 1006.5 1005.0 0.0
18/02:24pm 37.0 31.9 19.9 36 11.5 WSW 46 69 25 37 1006.5 1005.0 0.0
18/02:00pm 35.3 32.8 22.3 47 9.0 W 39 48 21 26 1007.5 1006.0 0.0
18/01:30pm 36.9 33.3 19.4 36 11.7 W 37 50 20 27 1008.0 1006.5 0.0
18/01:00pm 36.5 35.4 21.1 40 10.5 WSW 28 39 15 21 1008.3 1006.8 0.0
18/12:30pm 38.1 36.2 20.9 37 11.8 WSW 32 43 17 23 1008.3 1006.8 0.0
18/12:00pm 37.1 35.1 20.8 38 11.1 WSW 32 44 17 24 1008.2 1006.7 0.0
18/11:30am 36.2 34.4 21.6 42 10.0 W 33 43 18 23 1008.6 1007.1 0.0
18/11:20am 36.4 34.8 21.8 42 10.1 W 33 44 18 24 1008.8 1007.3 0.0
18/11:00am 36.0 33.8 22.2 45 9.6 WSW 37 46 20 25 1009.0 1007.5 0.0
18/10:55am 35.5 33.8 21.7 44 9.5 W 33 46 18 25 1008.9 1007.4 0.0
18/10:30am 34.4 33.5 22.1 48 8.5 WNW 30 41 16 22 1009.4 1008.0 0.0
18/10:00am 33.3 32.6 21.8 51 7.9 WNW 28 35 15 19 1009.3 1007.8 0.0
18/09:30am 31.5 31.4 20.8 53 7.2 WNW 22 28 12 15 1009.3 1007.8 0.0
18/09:00am 30.4 29.5 20.6 55 6.6 NW 26 37 14 20 1009.1 1007.6 2.4
18/08:30am 29.9 29.9 21.0 59 6.0 NW 22 32 12 17 1009.0 1007.5 2.4
18/08:00am 29.8 30.0 20.6 57 6.1 NNW 20 28 11 15 1008.9 1007.4 2.4
18/07:30am 27.9 28.5 19.4 60 5.5 NNW 15 19 8 10 1008.9 1007.4 2.4
18/07:00am 27.9 28.3 19.1 58 5.7 NNW 15 22 8 12 1008.7 1007.2 2.4
18/06:30am 26.9 29.1 19.5 64 4.8 NNW 7 13 4 7 1008.3 1006.8 2.4
18/06:00am 26.7 28.9 19.6 65 4.6 NW 7 11 4 6 1007.7 1006.2 2.4
18/05:30am 26.6 29.8 19.7 66 4.5 WNW 2 4 1 2 1007.2 1005.7 2.4
18/05:00am 25.9 29.0 20.2 71 3.8 SSW 4 6 2 3 1006.9 1005.4 2.4
18/04:30am 26.3 26.4 19.9 68 4.2 WNW 19 22 10 12 1006.3 1004.8 2.4
18/04:00am 27.3 27.4 19.9 64 4.9 NW 19 24 10 13 1006.1 1004.6 2.4
18/03:30am 27.5 27.9 20.6 66 4.6 NW 19 24 10 13 1005.9 1004.4 2.4
18/03:00am 26.9 27.5 21.0 70 3.9 NW 19 22 10 12 1005.9 1004.4 2.4
18/02:30am 27.4 27.8 20.7 67 4.4 NW 19 24 10 13 1006.0 1004.5 2.4
18/02:00am 27.8 27.2 20.4 64 4.9 NW 24 30 13 16 1006.0 1004.5 2.4
18/01:30am 27.9 26.8 20.2 63 5.1 NW 26 33 14 18 1006.1 1004.6 2.4
18/01:00am 27.9 26.5 20.5 64 4.9 NW 28 35 15 19 1006.1 1004.6 2.4
18/12:30am 28.2 27.1 21.0 65 4.8 NW 28 39 15 21 1006.3 1004.8 2.4
18/12:00am 27.6 25.7 20.9 67 4.5 NW 32 41 17 22 1006.6 1005.1 2.4
 
Date/Time
EST
Temp
°C
App
Temp
°C
Dew
Point
Rel
Hum
%
Delta-T
°C
Wind Press
QNH
hPa
Press
MSL
hPa
Rain
since 9 am
mm
Dir
 
Spd
km/h
Gust
km/h
Spd
kts
Gust
kts
17/11:30pm 27.6 24.0 19.4 61 5.3 NW 37 48 20 26 1006.6 1005.1 2.4
17/11:00pm 28.5 24.4 20.0 60 5.6 NW 41 52 22 28 1006.6 1005.1 2.4
17/10:30pm 27.3 24.8 20.9 68 4.3 NW 35 50 19 27 1007.6 1006.1 2.4
17/10:00pm 26.8 23.0 21.6 73 3.5 NW 44 57 24 31 1006.6 1005.1 2.4
17/09:40pm 27.4 20.0 18.9 59 5.5 WNW 56 78 30 42 1006.4 1004.9 2.0
17/09:35pm 28.9 24.2 19.8 58 6.0 WNW 44 67 24 36 1006.2 1004.7 1.8
17/09:30pm 29.9 27.0 19.3 53 7.0 W 33 63 18 34 1006.0 1004.5 1.6
17/09:28pm 29.4 27.7 19.7 56 6.4 W 28 50 15 27 1006.5 1005.0 1.6
17/09:26pm 29.9 28.7 19.3 53 7.0 W 24 43 13 23 1006.6 1005.1 1.4
17/09:00pm 35.0 34.1 19.0 39 10.6 NNW 22 39 12 21 1005.0 1003.6 0.4
17/08:30pm 35.3 36.0 18.8 37 10.9 NNW 13 15 7 8 1004.5 1003.0 0.4
17/08:00pm 35.5 35.9 19.0 37 11.0 NNW 15 19 8 10 1004.0 1002.5 0.4
17/07:30pm 36.1 36.4 18.7 36 11.5 NNW 15 17 8 9 1003.5 1002.0 0.4
17/07:00pm 37.0 37.2 17.6 32 12.7 NNW 13 19 7 10 1003.0 1001.5 0.4
17/06:30pm 37.5 36.7 17.0 30 13.3 NNW 17 22 9 12 1002.8 1001.3 0.4
17/06:00pm 37.6 35.7 17.6 31 13.1 N 24 28 13 15 1002.5 1001.0 0.4
17/05:30pm 38.7 37.5 17.5 29 13.9 NNW 20 28 11 15 1002.4 1000.9 0.4
17/05:00pm 40.5 37.8 14.6 21 16.5 WNW 22 28 12 15 1002.4 1000.9 0.4
17/04:30pm 40.6 38.5 16.1 24 15.9 NNW 22 33 12 18 1002.2 1000.7 0.4
17/04:00pm 40.5 36.8 16.0 24 15.9 NW 30 37 16 20 1002.4 1000.9 0.4
17/03:30pm 40.6 36.6 16.7 24 15.6 NW 33 50 18 27 1003.0 1001.5 0.4
17/03:00pm 38.4 34.4 16.7 28 14.1 NNW 33 43 18 23 1003.3 1001.8 0.4
17/02:50pm 37.9 34.5 17.8 30 13.2 NW 32 43 17 23 1003.6 1002.1 0.4
17/02:30pm 32.9 27.9 17.9 41 9.7 NW 41 63 22 34 1003.7 1002.2 0.4
17/02:22pm 31.8 25.0 19.4 47 8.2 NW 54 72 29 39 1004.0 1002.5 0.4
17/02:17pm 30.6 23.0 19.0 50 7.6 WNW 57 72 31 39 1004.1 1002.6 0.4
17/02:07pm 31.3 26.3 19.3 49 7.9 WSW 44 70 24 38 1004.7 1003.3 0.4
17/02:03pm 31.2 26.0 18.9 48 8.1 WSW 44 63 24 34 1004.9 1003.5 0.2
17/02:00pm 32.1 26.9 18.7 45 8.8 WSW 44 63 24 34 1004.8 1003.4 0.0
17/01:59pm 32.9 27.0 17.1 39 10.1 WSW 44 63 24 34 1004.6 1003.1 0.0
17/01:50pm 38.9 35.2 14.0 23 15.6 W 26 52 14 28 1003.8 1002.3 0.0
17/01:30pm 41.5 37.1 14.0 20 17.4 WNW 30 50 16 27 1003.7 1002.2 0.0
17/01:00pm 42.4 38.1 15.5 21 17.4 WNW 32 52 17 28 1004.4 1002.9 0.0
17/12:52pm 42.5 38.9 16.3 22 17.1 WNW 30 52 16 28 1004.4 1002.9 0.0
17/12:30pm 41.5 37.2 15.5 22 16.8 NW 32 46 17 25 1004.7 1003.3 0.0
17/12:00pm 41.3 36.9 16.7 24 16.1 NW 35 54 19 29 1005.2 1003.7 0.0
17/11:53am 41.2 36.9 15.9 22 16.4 WNW 33 54 18 29 1005.2 1003.7 0.0
17/11:30am 41.0 37.0 17.7 26 15.4 NW 35 50 19 27 1005.6 1004.1 0.0
17/11:00am 39.2 34.6 17.9 28 14.1 NW 39 54 21 29 1006.1 1004.6 0.0
17/10:30am 38.7 34.3 18.5 30 13.4 NW 39 54 21 29 1006.4 1004.9 0.0
17/10:00am 37.9 33.1 18.3 31 13.0 NNW 41 52 22 28 1006.5 1005.0 0.0
17/09:30am 37.0 32.8 19.0 34 12.0 NNW 39 56 21 30 1006.5 1005.0 0.0
17/09:00am 36.7 32.8 18.7 34 12.0 NNW 37 48 20 26 1006.6 1005.1 0.6
17/08:30am 35.0 31.4 18.6 38 10.8 N 35 44 19 24 1006.9 1005.4 0.6
17/08:00am 34.5 31.1 18.9 39 10.3 N 35 43 19 23 1006.7 1005.2 0.6
17/07:30am 33.8 31.2 17.9 38 10.3 N 28 35 15 19 1006.8 1005.3 0.6
17/07:00am 32.7 31.2 17.7 40 9.7 N 22 28 12 15 1006.6 1005.1 0.6
17/06:30am 31.2 30.4 17.9 45 8.6 N 19 22 10 12 1006.3 1004.8 0.4
17/06:00am 28.8 29.8 18.6 54 6.6 NNE 11 13 6 7 1005.9 1004.4 0.4
17/05:30am 27.5 28.6 18.8 59 5.6 NNE 11 13 6 7 1005.5 1004.0 0.4
17/05:00am 27.9 28.6 18.9 58 5.9 NNE 13 17 7 9 1005.2 1003.7 0.4
17/04:30am 28.3 28.4 18.4 55 6.4 NNE 15 17 8 9 1004.8 1003.4 0.4
17/04:00am 28.7 29.0 17.9 52 6.9 NNE 13 15 7 8 1004.7 1003.3 0.4
17/03:30am 29.2 29.4 17.7 50 7.4 NNE 13 15 7 8 1004.5 1003.0 0.4
17/03:00am 29.9 29.2 17.4 47 8.0 NNE 17 20 9 11 1004.5 1003.0 0.4
17/02:30am 28.6 28.9 18.7 55 6.4 NNE 15 17 8 9 1004.8 1003.4 0.4
17/02:00am 28.9 29.0 18.4 53 6.8 NE 15 20 8 11 1004.7 1003.3 0.4
17/01:30am 30.2 28.6 16.6 44 8.6 NE 20 28 11 15 1005.4 1003.9 0.4
17/01:00am 29.5 31.0 18.9 53 6.9 NNE 9 19 5 10 1005.5 1004.0 0.4
17/12:30am 30.4 29.8 18.5 49 7.7 SE 19 24 10 13 1005.4 1003.9 0.2
17/12:00am 30.4 29.1 19.1 50 7.4 SW 24 41 13 22 1005.9 1004.4 0.2
 
Date/Time
EST
Temp
°C
App
Temp
°C
Dew
Point
Rel
Hum
%
Delta-T
°C
Wind Press
QNH
hPa
Press
MSL
hPa
Rain
since 9 am
mm
Dir
 
Spd
km/h
Gust
km/h
Spd
kts
Gust
kts
16/11:50pm 29.5 27.0 17.0 47 7.9 SW 26 32 14 17 1006.2 1004.7 0.0
16/11:30pm 33.9 32.4 9.2 22 14.2 SSW 7 11 4 6 1004.9 1003.5 0.0
16/11:00pm 34.9 33.1 9.3 21 14.8 N 9 11 5 6 1004.7 1003.3 0.0
16/10:30pm 35.0 33.0 8.7 20 15.0 NNE 9 11 5 6 1004.3 1002.8 0.0

Other Formats:

Comma delimited format used in spreadsheet applications
http://www.bom.gov.au/fwo/IDQ60801/IDQ60801.94342.axf

JavaScript Object Notation format (JSON) in row-major order
http://www.bom.gov.au/fwo/IDQ60801/IDQ60801.94342.json